createdAt,value
2018-03-06T00:00:47.811Z,97763.52
2018-03-06T00:03:15.733Z,97765.56
2018-03-06T00:05:43.234Z,97755.92
2018-03-06T00:08:10.875Z,97756.36
2018-03-06T00:10:38.371Z,97751.31
2018-03-06T00:13:05.904Z,97748.77
2018-03-06T00:15:33.430Z,97749.20
2018-03-06T00:18:00.956Z,97750.40
2018-03-06T00:20:28.637Z,97746.67
2018-03-06T00:22:56.150Z,97741.16
2018-03-06T00:25:23.656Z,97742.85
2018-03-06T00:27:51.403Z,97741.14
2018-03-06T00:30:18.914Z,97739.45
2018-03-06T00:32:46.399Z,97729.41
2018-03-06T00:35:13.919Z,97729.80
2018-03-06T00:37:41.462Z,97735.70
2018-03-06T00:40:08.961Z,97732.77
2018-03-06T00:42:36.518Z,97731.52
2018-03-06T00:45:04.049Z,97729.84
2018-03-06T00:47:31.627Z,97719.36
2018-03-06T00:49:59.169Z,97729.42
2018-03-06T00:52:26.763Z,97728.16
2018-03-06T00:54:54.267Z,97717.68
2018-03-06T00:57:21.766Z,97722.30
2018-03-06T00:59:49.262Z,97717.61
2018-03-06T01:02:16.911Z,97715.56
2018-03-06T01:04:44.429Z,97713.92
2018-03-06T01:07:11.934Z,97712.60
2018-03-06T01:09:39.487Z,97711.31
2018-03-06T01:12:06.994Z,97708.41
2018-03-06T01:14:34.791Z,97703.41
2018-03-06T01:17:02.321Z,97710.52
2018-03-06T01:19:29.830Z,97705.88
2018-03-06T01:21:57.353Z,97694.98
2018-03-06T01:24:25.194Z,97692.80
2018-03-06T01:26:52.714Z,97692.80
2018-03-06T01:29:20.212Z,97691.16
2018-03-06T01:31:48.348Z,97684.03
2018-03-06T01:34:15.915Z,97688.17
2018-03-06T01:36:43.418Z,97685.30
2018-03-06T01:39:10.959Z,97680.66
2018-03-06T01:41:38.539Z,97683.21
2018-03-06T01:44:06.070Z,97677.29
2018-03-06T01:46:33.570Z,97681.50
2018-03-06T01:49:01.062Z,97675.21
2018-03-06T01:51:28.596Z,97678.17
2018-03-06T01:53:56.117Z,97674.39
2018-03-06T01:56:23.624Z,97670.66
2018-03-06T01:58:51.135Z,97668.52
2018-03-06T02:01:18.625Z,97668.50
2018-03-06T02:03:46.784Z,97668.87
2018-03-06T02:06:14.290Z,97660.55
2018-03-06T02:08:41.842Z,97655.88
2018-03-06T02:11:10.355Z,97647.97
2018-03-06T02:13:37.872Z,97646.28
2018-03-06T02:16:05.376Z,97642.06
2018-03-06T02:18:33.003Z,97639.05
2018-03-06T02:21:01.742Z,97638.63
2018-03-06T02:23:29.247Z,97631.49
2018-03-06T02:25:56.947Z,97632.81
2018-03-06T02:28:24.438Z,97621.01
2018-03-06T02:30:52.079Z,97616.78
2018-03-06T02:33:19.571Z,97617.63
2018-03-06T02:35:47.080Z,97616.39
2018-03-06T02:38:14.779Z,97613.45
2018-03-06T02:40:42.339Z,97614.63
2018-03-06T02:43:09.848Z,97606.71
2018-03-06T02:45:37.347Z,97609.56
2018-03-06T02:48:08.295Z,97602.98
2018-03-06T02:50:35.814Z,97600.81
2018-03-06T02:53:03.303Z,97596.64
2018-03-06T02:55:30.811Z,97588.72
2018-03-06T02:57:58.595Z,97584.94
2018-03-06T03:00:26.283Z,97582.48
2018-03-06T03:02:53.866Z,97579.45
2018-03-06T03:05:21.383Z,97574.84
2018-03-06T03:07:48.863Z,97569.33
2018-03-06T03:10:16.389Z,97562.28
2018-03-06T03:12:44.046Z,97563.48
2018-03-06T03:15:11.652Z,97560.94
2018-03-06T03:17:39.147Z,97560.97
2018-03-06T03:20:06.636Z,97559.28
2018-03-06T03:22:34.141Z,97556.85
2018-03-06T03:25:01.655Z,97548.02
2018-03-06T03:27:29.150Z,97548.04
2018-03-06T03:29:56.655Z,97542.17
2018-03-06T03:32:24.163Z,97538.78
2018-03-06T03:34:51.679Z,97535.88
2018-03-06T03:37:19.175Z,97531.73
2018-03-06T03:39:46.716Z,97522.45
2018-03-06T03:42:14.234Z,97519.09
2018-03-06T03:44:41.715Z,97522.86
2018-03-06T03:47:09.218Z,97515.76
2018-03-06T03:49:36.752Z,97514.89
2018-03-06T03:52:04.252Z,97504.81
2018-03-06T03:54:31.846Z,97508.15
2018-03-06T03:56:59.352Z,97505.56
2018-03-06T03:59:26.860Z,97506.34
2018-03-06T04:01:54.372Z,97505.02
2018-03-06T04:04:21.884Z,97502.21
2018-03-06T04:06:49.471Z,97498.85
2018-03-06T04:09:17.001Z,97498.82
2018-03-06T04:11:45.552Z,97494.20
2018-03-06T04:14:13.043Z,97494.66
2018-03-06T04:16:40.531Z,97483.36
2018-03-06T04:19:08.020Z,97488.33
2018-03-06T04:21:35.506Z,97485.39
2018-03-06T04:24:02.996Z,97486.68
2018-03-06T04:26:30.826Z,97482.09
2018-03-06T04:28:58.308Z,97480.42
2018-03-06T04:31:25.803Z,97476.19
2018-03-06T04:33:53.296Z,97482.03
2018-03-06T04:36:20.866Z,97478.73
2018-03-06T04:38:48.358Z,97480.45
2018-03-06T04:41:15.846Z,97478.32
2018-03-06T04:43:43.312Z,97481.71
2018-03-06T04:46:10.863Z,97475.31
2018-03-06T04:48:38.351Z,97466.41
2018-03-06T04:51:05.832Z,97466.44
2018-03-06T04:53:33.340Z,97465.98
2018-03-06T04:56:00.807Z,97468.47
2018-03-06T04:58:28.374Z,97464.38
2018-03-06T05:00:55.890Z,97458.53
2018-03-06T05:03:23.366Z,97453.84
2018-03-06T05:05:50.842Z,97456.81
2018-03-06T05:08:18.427Z,97448.04
2018-03-06T05:10:45.901Z,97439.29
2018-03-06T05:13:13.375Z,97437.62
2018-03-06T05:15:40.853Z,97437.16
2018-03-06T05:18:08.394Z,97428.70
2018-03-06T05:20:35.873Z,97427.40
2018-03-06T05:23:03.347Z,97426.83
2018-03-06T05:25:30.840Z,97423.09
2018-03-06T05:27:58.319Z,97429.92
2018-03-06T05:30:25.959Z,97428.59
2018-03-06T05:32:53.434Z,97431.18
2018-03-06T05:35:20.911Z,97422.71
2018-03-06T05:37:48.763Z,97433.27
2018-03-06T05:40:16.313Z,97427.71
2018-03-06T05:42:44.060Z,97433.55
2018-03-06T05:45:11.580Z,97433.47
2018-03-06T05:47:39.071Z,97434.81
2018-03-06T05:50:07.441Z,97433.97
2018-03-06T05:52:34.997Z,97434.63
2018-03-06T05:55:02.498Z,97440.54
2018-03-06T05:57:29.971Z,97434.20
2018-03-06T05:59:57.462Z,97436.30
2018-03-06T06:02:24.944Z,97436.23
2018-03-06T06:04:52.467Z,97434.63
2018-03-06T06:07:19.950Z,97437.14
2018-03-06T06:09:47.448Z,97437.56
2018-03-06T06:12:14.931Z,97441.83
2018-03-06T06:14:42.473Z,97437.98
2018-03-06T06:17:09.927Z,97441.83
2018-03-06T06:19:37.410Z,97441.80
2018-03-06T06:22:05.004Z,97442.64
2018-03-06T06:24:32.504Z,97443.73
2018-03-06T06:27:00.019Z,97446.38
2018-03-06T06:29:28.247Z,97443.13
2018-03-06T06:31:55.751Z,97441.06
2018-03-06T06:34:23.210Z,97445.23
2018-03-06T06:36:50.697Z,97444.23
2018-03-06T06:39:18.199Z,97446.41
2018-03-06T06:41:45.666Z,97440.53
2018-03-06T06:44:13.151Z,97442.59
2018-03-06T06:46:40.690Z,97442.71
2018-03-06T06:49:08.170Z,97433.81
2018-03-06T06:51:35.645Z,97437.44
2018-03-06T06:54:03.157Z,97437.36
2018-03-06T06:56:30.642Z,97436.98
2018-03-06T06:58:58.117Z,97423.96
2018-03-06T07:01:25.594Z,97429.53
2018-03-06T07:03:53.063Z,97429.84
2018-03-06T07:06:20.531Z,97428.34
2018-03-06T07:08:48.008Z,97424.09
2018-03-06T07:11:15.468Z,97418.25
2018-03-06T07:13:43.567Z,97416.91
2018-03-06T07:16:11.048Z,97424.30
2018-03-06T07:18:38.498Z,97422.94
2018-03-06T07:21:06.091Z,97413.32
2018-03-06T07:23:33.576Z,97420.38
2018-03-06T07:26:01.032Z,97411.41
2018-03-06T07:28:28.578Z,97409.31
2018-03-06T07:30:56.074Z,97413.52
2018-03-06T07:33:23.538Z,97405.34
2018-03-06T07:35:51.046Z,97406.70
2018-03-06T07:38:18.889Z,97402.29
2018-03-06T07:40:46.360Z,97401.78
2018-03-06T07:43:13.850Z,97403.46
2018-03-06T07:45:41.660Z,97401.95
2018-03-06T07:48:09.119Z,97401.16
2018-03-06T07:50:36.579Z,97403.94
2018-03-06T07:53:04.030Z,97404.56
2018-03-06T07:55:31.532Z,97399.84
2018-03-06T07:57:59.032Z,97398.93
2018-03-06T08:00:26.582Z,97400.32
2018-03-06T08:02:54.044Z,97386.75
2018-03-06T08:05:21.524Z,97394.16
2018-03-06T08:07:48.976Z,97389.69
2018-03-06T08:10:17.190Z,97392.73
2018-03-06T08:12:44.966Z,97390.05
2018-03-06T08:15:12.496Z,97390.41
2018-03-06T08:17:41.367Z,97395.73
2018-03-06T08:20:08.858Z,97388.80
2018-03-06T08:22:36.315Z,97386.09
2018-03-06T08:25:03.770Z,97384.06
2018-03-06T08:27:31.222Z,97376.89
2018-03-06T08:29:58.701Z,97381.52
2018-03-06T08:32:26.170Z,97382.62
2018-03-06T08:34:53.611Z,97379.21
2018-03-06T08:37:21.079Z,97379.87
2018-03-06T08:39:48.560Z,97374.50
2018-03-06T08:42:16.679Z,97371.66
2018-03-06T08:44:44.394Z,97374.20
2018-03-06T08:47:11.867Z,97373.11
2018-03-06T08:49:39.328Z,97369.69
2018-03-06T08:52:06.802Z,97366.84
2018-03-06T08:54:34.276Z,97362.42
2018-03-06T08:57:01.735Z,97361.08
2018-03-06T08:59:29.228Z,97361.44
2018-03-06T09:01:56.679Z,97359.09
2018-03-06T09:04:24.133Z,97355.59
2018-03-06T09:06:51.615Z,97361.34
2018-03-06T09:09:19.092Z,97353.85
2018-03-06T09:11:46.608Z,97351.09
2018-03-06T09:14:14.120Z,97355.44
2018-03-06T09:16:41.577Z,97353.22
2018-03-06T09:19:09.019Z,97347.39
2018-03-06T09:21:36.535Z,97347.38
2018-03-06T09:24:04.000Z,97345.14
2018-03-06T09:26:31.457Z,97329.82
2018-03-06T09:28:58.929Z,97333.41
2018-03-06T09:31:26.410Z,97331.64
2018-03-06T09:33:53.882Z,97332.61
2018-03-06T09:36:21.366Z,97331.38
2018-03-06T09:38:48.829Z,97317.95
2018-03-06T09:41:16.297Z,97316.86
2018-03-06T09:43:43.759Z,97316.16
2018-03-06T09:46:11.220Z,97312.03
2018-03-06T09:48:38.795Z,97305.07
2018-03-06T09:51:06.259Z,97307.73
2018-03-06T09:53:34.327Z,97304.75
2018-03-06T09:56:01.802Z,97302.08
2018-03-06T09:58:29.277Z,97293.13
2018-03-06T10:00:56.721Z,97289.94
2018-03-06T10:03:24.175Z,97294.91
2018-03-06T10:05:51.635Z,97290.69
2018-03-06T10:08:19.099Z,97289.20
2018-03-06T10:10:46.583Z,97284.84
2018-03-06T10:13:14.056Z,97282.67
2018-03-06T10:15:41.501Z,97279.23
2018-03-06T10:18:08.961Z,97276.74
2018-03-06T10:20:36.422Z,97271.60
2018-03-06T10:23:03.863Z,97273.13
2018-03-06T10:25:31.340Z,97269.58
2018-03-06T10:27:58.859Z,97267.50
2018-03-06T10:30:26.412Z,97268.23
2018-03-06T10:32:53.870Z,97264.19
2018-03-06T10:35:21.324Z,97258.74
2018-03-06T10:37:49.532Z,97267.63
2018-03-06T10:40:17.012Z,97262.75
2018-03-06T10:42:44.458Z,97264.62
2018-03-06T10:45:11.959Z,97261.41
2018-03-06T10:47:39.410Z,97257.63
2018-03-06T10:50:06.910Z,97256.80
2018-03-06T10:52:34.391Z,97256.86
2018-03-06T10:55:01.842Z,97250.80
2018-03-06T10:57:29.320Z,97246.84
2018-03-06T10:59:56.793Z,97248.83
2018-03-06T11:02:29.897Z,97243.44
2018-03-06T11:04:57.389Z,97249.05
2018-03-06T11:07:24.864Z,97241.70
2018-03-06T11:09:52.335Z,97240.44
2018-03-06T11:12:19.791Z,97239.16
2018-03-06T11:14:48.755Z,97222.86
2018-03-06T11:17:16.214Z,97220.97
2018-03-06T11:19:43.708Z,97221.46
2018-03-06T11:22:11.167Z,97217.09
2018-03-06T11:24:38.821Z,97215.21
2018-03-06T11:27:06.283Z,97217.41
2018-03-06T11:29:33.776Z,97218.39
2018-03-06T11:32:01.248Z,97220.36
2018-03-06T11:34:28.703Z,97214.61
2018-03-06T11:36:56.188Z,97208.30
2018-03-06T11:39:23.643Z,97209.38
2018-03-06T11:41:51.091Z,97202.16
2018-03-06T11:44:18.608Z,97203.16
2018-03-06T11:46:46.073Z,97193.56
2018-03-06T11:49:13.532Z,97197.05
2018-03-06T11:51:40.996Z,97204.83
2018-03-06T11:54:08.471Z,97205.41
2018-03-06T11:56:35.943Z,97212.31
2018-03-06T11:59:03.406Z,97204.63
2018-03-06T12:01:30.859Z,97210.91
2018-03-06T12:03:58.342Z,97201.45
2018-03-06T12:06:25.940Z,97200.36
2018-03-06T12:08:53.676Z,97204.80
2018-03-06T12:11:21.181Z,97203.71
2018-03-06T12:13:48.663Z,97201.69
2018-03-06T12:16:16.174Z,97196.48
2018-03-06T12:18:44.356Z,97201.20
2018-03-06T12:21:11.865Z,97199.73
2018-03-06T12:23:39.335Z,97192.73
2018-03-06T12:26:06.823Z,97208.72
2018-03-06T12:28:34.280Z,97198.13
2018-03-06T12:31:01.780Z,97200.02
2018-03-06T12:33:29.323Z,97202.59
2018-03-06T12:35:56.783Z,97203.20
2018-03-06T12:38:24.287Z,97200.55
2018-03-06T12:40:51.812Z,97204.02
2018-03-06T12:43:19.256Z,97199.72
2018-03-06T12:45:46.713Z,97193.95
2018-03-06T12:48:14.162Z,97196.05
2018-03-06T12:50:41.634Z,97201.95
2018-03-06T12:53:09.110Z,97194.30
2018-03-06T12:55:36.546Z,97199.42
2018-03-06T12:58:04.035Z,97194.53
2018-03-06T13:00:31.538Z,97206.05
2018-03-06T13:02:58.991Z,97205.11
2018-03-06T13:05:26.450Z,97198.89
2018-03-06T13:07:53.887Z,97202.13
2018-03-06T13:10:21.344Z,97209.50
2018-03-06T13:12:48.799Z,97207.53
2018-03-06T13:15:16.401Z,97209.30
2018-03-06T13:17:43.872Z,97203.07
2018-03-06T13:20:11.347Z,97206.25
2018-03-06T13:22:38.811Z,97204.73
2018-03-06T13:25:06.425Z,97203.46
2018-03-06T13:27:33.875Z,97199.48
2018-03-06T13:30:01.344Z,97197.24
2018-03-06T13:32:28.815Z,97207.11
2018-03-06T13:34:56.281Z,97209.91
2018-03-06T13:37:23.761Z,97207.66
2018-03-06T13:39:51.752Z,97211.95
2018-03-06T13:42:19.215Z,97211.27
2018-03-06T13:44:46.707Z,97212.58
2018-03-06T13:47:14.152Z,97208.33
2018-03-06T13:49:41.625Z,97205.59
2018-03-06T13:52:09.091Z,97204.73
2018-03-06T13:54:36.603Z,97213.61
2018-03-06T13:57:04.057Z,97206.95
2018-03-06T13:59:31.520Z,97209.68
2018-03-06T14:01:59.004Z,97211.59
2018-03-06T14:04:26.469Z,97217.76
2018-03-06T14:06:53.920Z,97214.31
2018-03-06T14:09:21.438Z,97208.98
2018-03-06T14:11:49.090Z,97206.48
2018-03-06T14:14:16.542Z,97204.22
2018-03-06T14:16:44.001Z,97201.06
2018-03-06T14:19:11.452Z,97208.68
2018-03-06T14:21:38.946Z,97204.37
2018-03-06T14:24:06.427Z,97207.65
2018-03-06T14:26:33.940Z,97203.72
2018-03-06T14:29:01.421Z,97206.29
2018-03-06T14:31:28.879Z,97203.02
2018-03-06T14:33:56.347Z,97203.33
2018-03-06T14:36:23.930Z,97204.61
2018-03-06T14:38:51.419Z,97204.78
2018-03-06T14:41:18.884Z,97209.77
2018-03-06T14:43:46.348Z,97213.86
2018-03-06T14:46:13.956Z,97206.09
2018-03-06T14:48:41.781Z,97205.80
2018-03-06T14:51:09.283Z,97204.81
2018-03-06T14:53:36.720Z,97195.16
2018-03-06T14:56:04.176Z,97207.18
2018-03-06T14:58:31.627Z,97206.41
2018-03-06T15:00:59.120Z,97204.30
2018-03-06T15:03:26.590Z,97200.84
2018-03-06T15:05:54.036Z,97193.59
2018-03-06T15:08:21.515Z,97190.81
2018-03-06T15:10:49.020Z,97186.37
2018-03-06T15:13:16.540Z,97184.55
2018-03-06T15:15:44.032Z,97187.59
2018-03-06T15:18:11.490Z,97181.48
2018-03-06T15:20:38.947Z,97186.12
2018-03-06T15:23:06.399Z,97184.52
2018-03-06T15:25:33.869Z,97189.52
2018-03-06T15:28:01.383Z,97190.77
2018-03-06T15:30:28.880Z,97188.87
2018-03-06T15:32:56.551Z,97189.03
2018-03-06T15:35:23.998Z,97197.36
2018-03-06T15:37:51.474Z,97199.08
2018-03-06T15:40:18.943Z,97201.97
2018-03-06T15:42:46.425Z,97192.25
2018-03-06T15:45:13.958Z,97195.30
2018-03-06T15:47:41.419Z,97197.31
2018-03-06T15:50:08.882Z,97191.97
2018-03-06T15:52:36.334Z,97196.69
2018-03-06T15:55:03.823Z,97194.44
2018-03-06T15:57:31.297Z,97193.11
2018-03-06T15:59:58.817Z,97200.33
2018-03-06T16:02:26.286Z,97200.83
2018-03-06T16:04:53.744Z,97199.22
2018-03-06T16:07:21.231Z,97204.23
2018-03-06T16:09:48.733Z,97203.28
2018-03-06T16:12:16.193Z,97196.72
2018-03-06T16:14:43.666Z,97207.72
2018-03-06T16:17:11.142Z,97210.70
2018-03-06T16:19:38.654Z,97216.80
2018-03-06T16:22:06.115Z,97220.33
2018-03-06T16:24:33.642Z,97211.25
2018-03-06T16:27:01.139Z,97213.84
2018-03-06T16:29:28.617Z,97216.21
2018-03-06T16:31:56.117Z,97221.52
2018-03-06T16:34:23.606Z,97229.98
2018-03-06T16:36:51.060Z,97233.13
2018-03-06T16:39:18.543Z,97239.23
2018-03-06T16:41:46.055Z,97233.05
2018-03-06T16:44:13.526Z,97244.84
2018-03-06T16:46:41.091Z,97241.97
2018-03-06T16:49:08.554Z,97245.91
2018-03-06T16:51:37.012Z,97244.27
2018-03-06T16:54:04.480Z,97245.69
2018-03-06T16:56:32.202Z,97245.27
2018-03-06T16:58:59.740Z,97246.70
2018-03-06T17:01:27.195Z,97248.03
2018-03-06T17:03:54.663Z,97250.14
2018-03-06T17:06:22.145Z,97249.02
2018-03-06T17:08:49.644Z,97247.03
2018-03-06T17:11:17.309Z,97263.38
2018-03-06T17:13:44.797Z,97263.16
2018-03-06T17:16:12.263Z,97268.14
2018-03-06T17:18:39.725Z,97270.66
2018-03-06T17:21:07.276Z,97269.95
2018-03-06T17:23:34.812Z,97270.50
2018-03-06T17:26:02.326Z,97274.77
2018-03-06T17:28:29.863Z,97265.58
2018-03-06T17:30:57.372Z,97274.41
2018-03-06T17:33:24.854Z,97275.23
2018-03-06T17:35:52.371Z,97284.98
2018-03-06T17:38:19.857Z,97279.46
2018-03-06T17:40:47.340Z,97281.97
2018-03-06T17:43:14.861Z,97288.81
2018-03-06T17:45:42.361Z,97282.22
2018-03-06T17:48:09.819Z,97286.09
2018-03-06T17:50:38.450Z,97291.16
2018-03-06T17:53:07.192Z,97294.87
2018-03-06T17:55:34.685Z,97295.78
2018-03-06T17:58:02.158Z,97295.37
2018-03-06T18:00:29.617Z,97300.12
2018-03-06T18:02:57.821Z,97301.43
2018-03-06T18:05:25.398Z,97301.43
2018-03-06T18:07:53.514Z,97312.05
2018-03-06T18:10:21.024Z,97307.47
2018-03-06T18:12:48.565Z,97309.95
2018-03-06T18:15:16.311Z,97310.36
2018-03-06T18:17:43.778Z,97314.95
2018-03-06T18:20:11.240Z,97319.98
2018-03-06T18:22:38.840Z,97317.47
2018-03-06T18:25:06.310Z,97314.52
2018-03-06T18:27:33.962Z,97314.52
2018-03-06T18:30:02.237Z,97314.56
2018-03-06T18:32:29.723Z,97325.87
2018-03-06T18:34:57.224Z,97329.55
2018-03-06T18:37:24.808Z,97328.71
2018-03-06T18:39:52.309Z,97327.03
2018-03-06T18:42:20.606Z,97320.36
2018-03-06T18:44:48.064Z,97328.50
2018-03-06T18:47:15.539Z,97328.52
2018-03-06T18:49:54.807Z,97332.39
2018-03-06T18:52:22.260Z,97332.09
2018-03-06T18:54:49.703Z,97335.61
2018-03-06T18:57:17.671Z,97348.83
2018-03-06T18:59:45.146Z,97340.15
2018-03-06T19:02:24.485Z,97340.31
2018-03-06T19:05:03.663Z,97345.91
2018-03-06T19:07:31.159Z,97344.18
2018-03-06T19:09:58.616Z,97345.20
2018-03-06T19:12:26.382Z,97355.51
2018-03-06T19:14:53.937Z,97361.56
2018-03-06T19:17:21.395Z,97355.00
2018-03-06T19:19:48.946Z,97353.06
2018-03-06T19:22:16.487Z,97353.98
2018-03-06T19:24:43.947Z,97364.55
2018-03-06T19:36:54.177Z,97364.45
2018-03-06T19:39:22.021Z,97371.13
2018-03-06T19:41:50.349Z,97367.02
2018-03-06T19:44:17.972Z,97358.58
2018-03-06T19:46:45.452Z,97364.92
2018-03-06T19:49:15.727Z,97365.88
2018-03-06T19:51:43.442Z,97363.41
2018-03-06T19:54:20.367Z,97362.94
2018-03-06T19:56:49.105Z,97372.72
2018-03-06T19:59:16.717Z,97374.14
2018-03-06T20:01:45.780Z,97367.45
2018-03-06T20:04:13.445Z,97376.77
2018-03-06T20:06:41.416Z,97371.34
2018-03-06T20:09:09.401Z,97371.31
2018-03-06T20:11:37.708Z,97375.12
2018-03-06T20:14:05.391Z,97370.69
2018-03-06T20:16:33.176Z,97366.98
2018-03-06T20:19:07.232Z,97365.30
2018-03-06T20:21:34.844Z,97377.05
2018-03-06T20:24:07.867Z,97383.77
2018-03-06T20:26:37.704Z,97392.25
2018-03-06T20:29:09.466Z,97390.19
2018-03-06T20:31:44.006Z,97384.42
2018-03-06T20:34:11.875Z,97393.23
2018-03-06T20:36:39.528Z,97395.61
2018-03-06T20:39:12.806Z,97393.94
2018-03-06T20:41:40.467Z,97392.32
2018-03-06T20:51:58.032Z,97400.06
2018-03-06T20:54:31.096Z,97394.70
2018-03-06T20:59:32.654Z,97394.03
2018-03-06T21:02:00.276Z,97394.90
2018-03-06T21:04:27.877Z,97398.64
2018-03-06T21:07:02.813Z,97399.48
2018-03-06T21:24:51.563Z,97389.89
2018-03-06T21:27:20.404Z,97392.83
2018-03-06T21:29:48.034Z,97391.15
2018-03-06T21:32:18.029Z,97393.61
2018-03-06T21:39:57.363Z,97401.64
2018-03-06T21:42:25.108Z,97407.91
2018-03-06T21:45:03.072Z,97409.94
2018-03-06T21:47:31.623Z,97409.80
2018-03-06T21:49:59.773Z,97405.12
2018-03-06T21:52:27.511Z,97409.25
2018-03-06T21:54:55.971Z,97399.88
2018-03-06T21:57:24.157Z,97401.14
2018-03-06T21:59:51.640Z,97406.56
2018-03-06T22:02:19.131Z,97407.86
2018-03-06T22:04:47.000Z,97397.30
2018-03-06T22:07:14.938Z,97400.27
2018-03-06T22:09:42.538Z,97397.33
2018-03-06T22:12:10.046Z,97401.06
2018-03-06T22:14:37.560Z,97399.63
2018-03-06T22:17:05.856Z,97389.17
2018-03-06T22:19:34.178Z,97401.30
2018-03-06T22:22:01.689Z,97388.75
2018-03-06T22:24:30.381Z,97398.78
2018-03-06T22:26:57.892Z,97399.23
2018-03-06T22:29:25.396Z,97404.73
2018-03-06T22:31:53.290Z,97392.95
2018-03-06T22:34:20.855Z,97398.36
2018-03-06T22:36:48.621Z,97391.64
2018-03-06T22:39:17.653Z,97398.28
2018-03-06T22:41:45.115Z,97392.79
2018-03-06T22:44:12.697Z,97393.67
2018-03-06T22:46:40.243Z,97397.03
2018-03-06T22:49:07.751Z,97394.51
2018-03-06T22:51:35.237Z,97403.29
2018-03-06T22:54:02.736Z,97401.61
2018-03-06T22:56:30.774Z,97402.06
2018-03-06T22:58:58.288Z,97410.39
2018-03-06T23:01:25.763Z,97406.14
2018-03-06T23:03:54.252Z,97408.63
2018-03-06T23:06:22.518Z,97404.42
2018-03-06T23:08:50.393Z,97393.84
2018-03-06T23:11:17.976Z,97399.64
2018-03-06T23:13:45.485Z,97384.10
2018-03-06T23:16:13.502Z,97390.36
2018-03-06T23:18:41.072Z,97393.73
2018-03-06T23:21:08.551Z,97400.06
2018-03-06T23:23:36.029Z,97392.00
2018-03-06T23:26:03.559Z,97392.00
2018-03-06T23:28:31.306Z,97397.00
2018-03-06T23:30:58.818Z,97402.42
2018-03-06T23:33:26.405Z,97398.64
2018-03-06T23:35:53.894Z,97399.47
2018-03-06T23:38:21.406Z,97402.80
2018-03-06T23:40:49.075Z,97399.86
2018-03-06T23:43:16.613Z,97407.78
2018-03-06T23:45:44.091Z,97412.79
2018-03-06T23:48:11.584Z,97417.07
2018-03-06T23:50:41.140Z,97404.14
2018-03-06T23:53:08.659Z,97404.98
2018-03-06T23:55:36.099Z,97406.36
2018-03-06T23:58:03.580Z,97412.28
